sensor_id;sensor_type;location;lat;lon;timestamp;pressure;altitude;pressure_sealevel;temperature;humidity
11077;BME280;5591;42.626;23.380;2023-07-24T00:00:44;94459.03;;;21.69;100.00
11077;BME280;5591;42.626;23.380;2023-07-24T00:03:11;94452.66;;;21.75;100.00
11077;BME280;5591;42.626;23.380;2023-07-24T00:05:38;94450.31;;;21.79;100.00
11077;BME280;5591;42.626;23.380;2023-07-24T00:08:06;94457.66;;;21.88;100.00
11077;BME280;5591;42.626;23.380;2023-07-24T00:10:33;94456.06;;;21.92;100.00
11077;BME280;5591;42.626;23.380;2023-07-24T00:12:59;94459.00;;;21.91;100.00
11077;BME280;5591;42.626;23.380;2023-07-24T00:15:26;94447.19;;;21.87;99.51
11077;BME280;5591;42.626;23.380;2023-07-24T00:17:53;94454.47;;;21.91;97.48
11077;BME280;5591;42.626;23.380;2023-07-24T00:20:20;94454.78;;;21.95;97.55
11077;BME280;5591;42.626;23.380;2023-07-24T00:22:47;94447.13;;;21.82;97.48
11077;BME280;5591;42.626;23.380;2023-07-24T00:25:15;94445.59;;;21.64;98.57
11077;BME280;5591;42.626;23.380;2023-07-24T00:27:42;94444.47;;;21.60;99.30
11077;BME280;5591;42.626;23.380;2023-07-24T00:30:09;94453.28;;;21.61;99.75
11077;BME280;5591;42.626;23.380;2023-07-24T00:32:37;94453.00;;;21.57;100.00
11077;BME280;5591;42.626;23.380;2023-07-24T00:35:05;94456.28;;;21.64;99.71
11077;BME280;5591;42.626;23.380;2023-07-24T00:37:33;94451.75;;;21.65;98.87
11077;BME280;5591;42.626;23.380;2023-07-24T00:40:00;94446.72;;;21.68;100.00
11077;BME280;5591;42.626;23.380;2023-07-24T00:42:29;94452.44;;;21.77;98.48
11077;BME280;5591;42.626;23.380;2023-07-24T00:44:55;94444.66;;;21.75;99.62
11077;BME280;5591;42.626;23.380;2023-07-24T00:47:22;94450.00;;;21.75;99.39
11077;BME280;5591;42.626;23.380;2023-07-24T00:49:50;94451.25;;;21.68;100.00
11077;BME280;5591;42.626;23.380;2023-07-24T00:52:17;94450.56;;;21.56;100.00
11077;BME280;5591;42.626;23.380;2023-07-24T00:54:44;94445.19;;;21.34;100.00
11077;BME280;5591;42.626;23.380;2023-07-24T00:57:12;94448.16;;;21.33;100.00
11077;BME280;5591;42.626;23.380;2023-07-24T00:59:41;94451.88;;;21.32;100.00
11077;BME280;5591;42.626;23.380;2023-07-24T01:02:08;94438.94;;;21.24;100.00
11077;BME280;5591;42.626;23.380;2023-07-24T01:04:35;94434.75;;;21.11;100.00
11077;BME280;5591;42.626;23.380;2023-07-24T01:07:04;94438.63;;;20.99;100.00
11077;BME280;5591;42.626;23.380;2023-07-24T01:09:31;94432.63;;;20.92;100.00
11077;BME280;5591;42.626;23.380;2023-07-24T01:12:04;94423.03;;;20.91;100.00
11077;BME280;5591;42.626;23.380;2023-07-24T01:14:38;94434.06;;;20.99;100.00
11077;BME280;5591;42.626;23.380;2023-07-24T01:17:12;94427.34;;;20.97;100.00
11077;BME280;5591;42.626;23.380;2023-07-24T01:19:43;94433.53;;;20.97;100.00
11077;BME280;5591;42.626;23.380;2023-07-24T01:22:20;94427.94;;;20.99;100.00
11077;BME280;5591;42.626;23.380;2023-07-24T01:25:09;94432.13;;;20.95;100.00
11077;BME280;5591;42.626;23.380;2023-07-24T01:27:42;94429.47;;;20.95;100.00
11077;BME280;5591;42.626;23.380;2023-07-24T01:30:09;94428.81;;;21.04;100.00
11077;BME280;5591;42.626;23.380;2023-07-24T01:32:36;94438.34;;;21.00;100.00
11077;BME280;5591;42.626;23.380;2023-07-24T01:35:05;94432.97;;;20.95;100.00
11077;BME280;5591;42.626;23.380;2023-07-24T01:37:34;94429.28;;;21.01;100.00
11077;BME280;5591;42.626;23.380;2023-07-24T01:40:03;94426.00;;;20.94;100.00
11077;BME280;5591;42.626;23.380;2023-07-24T01:42:31;94429.78;;;20.82;100.00
11077;BME280;5591;42.626;23.380;2023-07-24T01:44:59;94432.31;;;20.72;100.00
11077;BME280;5591;42.626;23.380;2023-07-24T01:47:26;94422.00;;;20.59;100.00
11077;BME280;5591;42.626;23.380;2023-07-24T01:49:53;94431.22;;;20.51;100.00
11077;BME280;5591;42.626;23.380;2023-07-24T01:52:20;94443.41;;;20.31;100.00
11077;BME280;5591;42.626;23.380;2023-07-24T01:54:47;94432.28;;;20.18;100.00
11077;BME280;5591;42.626;23.380;2023-07-24T01:57:13;94452.06;;;20.38;100.00
11077;BME280;5591;42.626;23.380;2023-07-24T01:59:40;94446.00;;;20.42;100.00
11077;BME280;5591;42.626;23.380;2023-07-24T02:02:08;94448.13;;;20.40;100.00
11077;BME280;5591;42.626;23.380;2023-07-24T02:04:35;94437.19;;;20.26;100.00
11077;BME280;5591;42.626;23.380;2023-07-24T02:07:02;94441.47;;;20.27;100.00
11077;BME280;5591;42.626;23.380;2023-07-24T02:09:29;94433.31;;;20.33;100.00
11077;BME280;5591;42.626;23.380;2023-07-24T02:11:56;94434.78;;;20.24;100.00
11077;BME280;5591;42.626;23.380;2023-07-24T02:14:23;94434.63;;;20.31;100.00
11077;BME280;5591;42.626;23.380;2023-07-24T02:16:50;94430.56;;;20.28;100.00
11077;BME280;5591;42.626;23.380;2023-07-24T02:19:18;94434.28;;;20.43;100.00
11077;BME280;5591;42.626;23.380;2023-07-24T02:21:44;94425.63;;;20.20;100.00
11077;BME280;5591;42.626;23.380;2023-07-24T02:24:11;94428.78;;;20.17;100.00
11077;BME280;5591;42.626;23.380;2023-07-24T02:26:38;94431.63;;;20.27;100.00
11077;BME280;5591;42.626;23.380;2023-07-24T02:29:05;94429.03;;;20.32;100.00
11077;BME280;5591;42.626;23.380;2023-07-24T02:31:33;94428.06;;;20.22;100.00
11077;BME280;5591;42.626;23.380;2023-07-24T02:34:00;94423.22;;;20.35;100.00
11077;BME280;5591;42.626;23.380;2023-07-24T02:36:28;94420.22;;;20.32;100.00
11077;BME280;5591;42.626;23.380;2023-07-24T02:38:55;94421.75;;;20.27;100.00
11077;BME280;5591;42.626;23.380;2023-07-24T02:41:22;94424.50;;;20.16;100.00
11077;BME280;5591;42.626;23.380;2023-07-24T02:43:48;94420.63;;;20.07;100.00
11077;BME280;5591;42.626;23.380;2023-07-24T02:46:15;94423.28;;;20.07;100.00
11077;BME280;5591;42.626;23.380;2023-07-24T02:48:42;94418.78;;;20.08;100.00
11077;BME280;5591;42.626;23.380;2023-07-24T02:51:09;94415.41;;;20.01;100.00
11077;BME280;5591;42.626;23.380;2023-07-24T02:53:37;94428.94;;;20.11;100.00
11077;BME280;5591;42.626;23.380;2023-07-24T02:56:04;94431.28;;;20.07;100.00
11077;BME280;5591;42.626;23.380;2023-07-24T02:58:31;94434.28;;;20.11;100.00
11077;BME280;5591;42.626;23.380;2023-07-24T03:01:03;94434.50;;;20.09;100.00
11077;BME280;5591;42.626;23.380;2023-07-24T03:03:31;94416.91;;;20.08;100.00
11077;BME280;5591;42.626;23.380;2023-07-24T03:05:57;94417.97;;;20.07;100.00
11077;BME280;5591;42.626;23.380;2023-07-24T03:08:24;94420.75;;;20.01;100.00
11077;BME280;5591;42.626;23.380;2023-07-24T03:10:53;94384.88;;;19.75;100.00
11077;BME280;5591;42.626;23.380;2023-07-24T03:13:19;94417.19;;;19.95;100.00
11077;BME280;5591;42.626;23.380;2023-07-24T03:15:51;94421.25;;;19.98;100.00
11077;BME280;5591;42.626;23.380;2023-07-24T03:18:19;94413.47;;;19.96;100.00
11077;BME280;5591;42.626;23.380;2023-07-24T03:20:46;94417.19;;;19.95;100.00
11077;BME280;5591;42.626;23.380;2023-07-24T03:23:13;94405.72;;;19.95;100.00
11077;BME280;5591;42.626;23.380;2023-07-24T03:25:39;94413.63;;;19.90;100.00
11077;BME280;5591;42.626;23.380;2023-07-24T03:28:08;94415.25;;;19.91;100.00
11077;BME280;5591;42.626;23.380;2023-07-24T03:30:34;94412.63;;;20.07;100.00
11077;BME280;5591;42.626;23.380;2023-07-24T03:33:02;94428.47;;;20.14;100.00
11077;BME280;5591;42.626;23.380;2023-07-24T03:35:29;94417.00;;;20.13;100.00
11077;BME280;5591;42.626;23.380;2023-07-24T03:37:55;94411.91;;;20.28;100.00
11077;BME280;5591;42.626;23.380;2023-07-24T03:40:22;94413.84;;;20.33;100.00
11077;BME280;5591;42.626;23.380;2023-07-24T03:42:49;94426.06;;;20.29;100.00
11077;BME280;5591;42.626;23.380;2023-07-24T03:45:17;94428.47;;;20.14;100.00
11077;BME280;5591;42.626;23.380;2023-07-24T03:47:44;94431.19;;;20.02;100.00
11077;BME280;5591;42.626;23.380;2023-07-24T03:50:10;94426.63;;;20.03;100.00
11077;BME280;5591;42.626;23.380;2023-07-24T03:52:37;94431.56;;;19.94;100.00
11077;BME280;5591;42.626;23.380;2023-07-24T03:55:05;94430.84;;;19.99;100.00
11077;BME280;5591;42.626;23.380;2023-07-24T03:57:33;94435.13;;;20.00;100.00
11077;BME280;5591;42.626;23.380;2023-07-24T04:00:00;94432.69;;;19.98;100.00
11077;BME280;5591;42.626;23.380;2023-07-24T04:02:28;94438.56;;;20.00;100.00
11077;BME280;5591;42.626;23.380;2023-07-24T04:04:55;94426.34;;;20.16;100.00
11077;BME280;5591;42.626;23.380;2023-07-24T04:07:22;94425.31;;;20.17;100.00
11077;BME280;5591;42.626;23.380;2023-07-24T04:09:48;94433.31;;;20.33;100.00
11077;BME280;5591;42.626;23.380;2023-07-24T04:12:15;94432.28;;;20.34;100.00
11077;BME280;5591;42.626;23.380;2023-07-24T04:14:42;94436.63;;;20.56;100.00
11077;BME280;5591;42.626;23.380;2023-07-24T04:17:09;94442.78;;;20.57;100.00
11077;BME280;5591;42.626;23.380;2023-07-24T04:19:37;94436.63;;;20.56;100.00
11077;BME280;5591;42.626;23.380;2023-07-24T04:22:04;94442.94;;;20.50;100.00
11077;BME280;5591;42.626;23.380;2023-07-24T04:24:30;94441.22;;;20.61;100.00
11077;BME280;5591;42.626;23.380;2023-07-24T04:26:57;94447.03;;;20.74;100.00
11077;BME280;5591;42.626;23.380;2023-07-24T04:29:24;94430.84;;;20.81;100.00
11077;BME280;5591;42.626;23.380;2023-07-24T04:31:51;94436.19;;;20.97;100.00
11077;BME280;5591;42.626;23.380;2023-07-24T04:34:18;94441.53;;;20.97;100.00
11077;BME280;5591;42.626;23.380;2023-07-24T04:36:47;94432.13;;;20.95;100.00
11077;BME280;5591;42.626;23.380;2023-07-24T04:39:14;94432.63;;;20.92;100.00
11077;BME280;5591;42.626;23.380;2023-07-24T04:41:40;94428.44;;;21.17;100.00
11077;BME280;5591;42.626;23.380;2023-07-24T04:44:07;94437.19;;;21.34;100.00
11077;BME280;5591;42.626;23.380;2023-07-24T04:46:34;94437.16;;;21.51;100.00
11077;BME280;5591;42.626;23.380;2023-07-24T04:49:01;94435.16;;;21.63;100.00
11077;BME280;5591;42.626;23.380;2023-07-24T04:51:28;94438.41;;;21.65;100.00
11077;BME280;5591;42.626;23.380;2023-07-24T04:53:56;94438.22;;;21.71;100.00
11077;BME280;5591;42.626;23.380;2023-07-24T04:56:23;94444.09;;;21.95;100.00
11077;BME280;5591;42.626;23.380;2023-07-24T04:58:49;94436.34;;;21.98;100.00
11077;BME280;5591;42.626;23.380;2023-07-24T05:01:16;94445.69;;;22.22;100.00
11077;BME280;5591;42.626;23.380;2023-07-24T05:03:43;94446.91;;;22.10;100.00
11077;BME280;5591;42.626;23.380;2023-07-24T05:06:10;94434.72;;;22.24;100.00
11077;BME280;5591;42.626;23.380;2023-07-24T05:08:36;94347.69;;;21.80;100.00
11077;BME280;5591;42.626;23.380;2023-07-24T05:11:04;94451.28;;;22.47;100.00
11077;BME280;5591;42.626;23.380;2023-07-24T05:13:31;94452.44;;;22.61;100.00
11077;BME280;5591;42.626;23.380;2023-07-24T05:15:58;94446.38;;;22.71;100.00
11077;BME280;5591;42.626;23.380;2023-07-24T05:18:25;94443.19;;;22.74;100.00
11077;BME280;5591;42.626;23.380;2023-07-24T05:20:51;94448.09;;;22.87;100.00
11077;BME280;5591;42.626;23.380;2023-07-24T05:23:18;94443.91;;;23.01;100.00
11077;BME280;5591;42.626;23.380;2023-07-24T05:25:45;94423.41;;;23.16;100.00
11077;BME280;5591;42.626;23.380;2023-07-24T05:28:13;94444.72;;;23.52;100.00
11077;BME280;5591;42.626;23.380;2023-07-24T05:30:40;94439.97;;;23.64;100.00
11077;BME280;5591;42.626;23.380;2023-07-24T05:33:07;94441.63;;;23.80;99.34
11077;BME280;5591;42.626;23.380;2023-07-24T05:35:33;94439.78;;;23.86;98.95
11077;BME280;5591;42.626;23.380;2023-07-24T05:38:00;94445.69;;;23.88;98.88
11077;BME280;5591;42.626;23.380;2023-07-24T05:40:28;94430.91;;;23.80;99.58
11077;BME280;5591;42.626;23.380;2023-07-24T05:42:55;94438.50;;;23.98;99.20
11077;BME280;5591;42.626;23.380;2023-07-24T05:45:23;94439.03;;;24.15;96.37
11077;BME280;5591;42.626;23.380;2023-07-24T05:47:50;94429.41;;;24.19;95.62
11077;BME280;5591;42.626;23.380;2023-07-24T05:50:16;94432.63;;;24.31;95.80
11077;BME280;5591;42.626;23.380;2023-07-24T05:52:43;94427.25;;;24.46;94.62
11077;BME280;5591;42.626;23.380;2023-07-24T05:55:10;94401.25;;;24.27;94.94
11077;BME280;5591;42.626;23.380;2023-07-24T05:57:37;94423.81;;;24.61;94.99
11077;BME280;5591;42.626;23.380;2023-07-24T06:00:05;94412.78;;;24.52;96.11
11077;BME280;5591;42.626;23.380;2023-07-24T06:02:34;94409.84;;;24.54;95.97
11077;BME280;5591;42.626;23.380;2023-07-24T06:05:01;94414.13;;;24.80;94.71
11077;BME280;5591;42.626;23.380;2023-07-24T06:07:27;94399.06;;;24.94;95.99
11077;BME280;5591;42.626;23.380;2023-07-24T06:09:54;94409.25;;;25.07;96.55
11077;BME280;5591;42.626;23.380;2023-07-24T06:12:21;94407.69;;;24.81;100.00
11077;BME280;5591;42.626;23.380;2023-07-24T06:14:48;94404.41;;;25.09;97.87
11077;BME280;5591;42.626;23.380;2023-07-24T06:17:15;94407.56;;;25.36;96.87
11077;BME280;5591;42.626;23.380;2023-07-24T06:19:43;94419.16;;;25.11;99.86
11077;BME280;5591;42.626;23.380;2023-07-24T06:22:10;94406.50;;;25.37;95.95
11077;BME280;5591;42.626;23.380;2023-07-24T06:24:36;94388.19;;;25.44;93.33
11077;BME280;5591;42.626;23.380;2023-07-24T06:27:04;94398.16;;;25.38;96.73
11077;BME280;5591;42.626;23.380;2023-07-24T06:29:32;94400.34;;;25.36;96.85
11077;BME280;5591;42.626;23.380;2023-07-24T06:31:58;94403.00;;;25.46;96.31
11077;BME280;5591;42.626;23.380;2023-07-24T06:34:25;94404.34;;;25.39;96.04
11077;BME280;5591;42.626;23.380;2023-07-24T06:36:53;94327.00;;;25.16;94.44
11077;BME280;5591;42.626;23.380;2023-07-24T06:39:20;94401.66;;;25.97;91.96
11077;BME280;5591;42.626;23.380;2023-07-24T06:41:47;94404.84;;;26.09;90.97
11077;BME280;5591;42.626;23.380;2023-07-24T06:44:14;94401.84;;;26.10;91.70
11077;BME280;5591;42.626;23.380;2023-07-24T06:46:41;94401.53;;;26.22;91.68
11077;BME280;5591;42.626;23.380;2023-07-24T06:49:08;94400.50;;;26.08;92.15
11077;BME280;5591;42.626;23.380;2023-07-24T06:51:35;94403.38;;;25.78;93.49
11077;BME280;5591;42.626;23.380;2023-07-24T06:54:04;94388.84;;;25.01;99.15
11077;BME280;5591;42.626;23.380;2023-07-24T06:56:31;94410.88;;;25.08;98.64
11077;BME280;5591;42.626;23.380;2023-07-24T06:58:58;94411.41;;;25.10;99.11
11077;BME280;5591;42.626;23.380;2023-07-24T07:01:24;94404.88;;;25.36;97.51
11077;BME280;5591;42.626;23.380;2023-07-24T07:03:51;94406.25;;;25.33;99.48
11077;BME280;5591;42.626;23.380;2023-07-24T07:06:18;94378.50;;;25.48;96.01
11077;BME280;5591;42.626;23.380;2023-07-24T07:08:45;94409.59;;;26.22;92.66
11077;BME280;5591;42.626;23.380;2023-07-24T07:11:13;94412.34;;;26.45;92.04
11077;BME280;5591;42.626;23.380;2023-07-24T07:13:40;94397.38;;;26.34;92.36
11077;BME280;5591;42.626;23.380;2023-07-24T07:16:07;94408.91;;;26.78;89.70
11077;BME280;5591;42.626;23.380;2023-07-24T07:18:33;94393.34;;;26.99;87.56
11077;BME280;5591;42.626;23.380;2023-07-24T07:21:00;94397.59;;;27.33;86.86
11077;BME280;5591;42.626;23.380;2023-07-24T07:23:27;94402.97;;;27.57;85.19
11077;BME280;5591;42.626;23.380;2023-07-24T07:25:54;94406.09;;;27.45;85.57
11077;BME280;5591;42.626;23.380;2023-07-24T07:28:22;94404.28;;;27.12;85.44
11077;BME280;5591;42.626;23.380;2023-07-24T07:30:49;94400.13;;;26.29;90.10
11077;BME280;5591;42.626;23.380;2023-07-24T07:33:16;94405.00;;;26.61;88.38
11077;BME280;5591;42.626;23.380;2023-07-24T07:35:43;94384.06;;;27.15;85.02
11077;BME280;5591;42.626;23.380;2023-07-24T07:38:09;94400.19;;;27.43;83.94
11077;BME280;5591;42.626;23.380;2023-07-24T07:40:37;94368.97;;;26.57;86.89
11077;BME280;5591;42.626;23.380;2023-07-24T07:43:04;94409.00;;;26.68;87.43
11077;BME280;5591;42.626;23.380;2023-07-24T07:45:33;94394.94;;;27.28;84.39
11077;BME280;5591;42.626;23.380;2023-07-24T07:48:00;94400.84;;;27.02;84.92
11077;BME280;5591;42.626;23.380;2023-07-24T07:50:27;94401.59;;;27.07;84.85
11077;BME280;5591;42.626;23.380;2023-07-24T07:52:53;94402.75;;;27.30;83.02
11077;BME280;5591;42.626;23.380;2023-07-24T07:55:20;94398.91;;;27.83;78.95
11077;BME280;5591;42.626;23.380;2023-07-24T07:57:47;94402.69;;;28.00;77.54
11077;BME280;5591;42.626;23.380;2023-07-24T08:00:14;94395.44;;;28.38;75.89
11077;BME280;5591;42.626;23.380;2023-07-24T08:02:43;94412.88;;;28.45;75.29
11077;BME280;5591;42.626;23.380;2023-07-24T08:05:10;94390.75;;;28.75;72.61
11077;BME280;5591;42.626;23.380;2023-07-24T08:07:37;94396.84;;;28.67;72.73
11077;BME280;5591;42.626;23.380;2023-07-24T08:10:04;94379.88;;;28.48;74.32
11077;BME280;5591;42.626;23.380;2023-07-24T08:12:31;94391.19;;;28.82;71.07
11077;BME280;5591;42.626;23.380;2023-07-24T08:14:58;94391.78;;;29.11;68.71
11077;BME280;5591;42.626;23.380;2023-07-24T08:17:25;94393.88;;;29.27;69.29
11077;BME280;5591;42.626;23.380;2023-07-24T08:19:53;94380.22;;;29.51;67.04
11077;BME280;5591;42.626;23.380;2023-07-24T08:22:20;94385.13;;;29.76;65.21
11077;BME280;5591;42.626;23.380;2023-07-24T08:24:48;94382.31;;;29.81;65.34
11077;BME280;5591;42.626;23.380;2023-07-24T08:27:15;94381.16;;;28.51;67.43
11077;BME280;5591;42.626;23.380;2023-07-24T08:29:42;94369.06;;;28.11;70.47
11077;BME280;5591;42.626;23.380;2023-07-24T08:32:09;94345.81;;;28.66;68.46
11077;BME280;5591;42.626;23.380;2023-07-24T08:34:36;94367.56;;;29.19;64.45
11077;BME280;5591;42.626;23.380;2023-07-24T08:37:05;94369.66;;;29.36;61.42
11077;BME280;5591;42.626;23.380;2023-07-24T08:39:32;94365.91;;;28.91;63.97
11077;BME280;5591;42.626;23.380;2023-07-24T08:41:58;94364.97;;;29.28;63.06
11077;BME280;5591;42.626;23.380;2023-07-24T08:44:28;94347.94;;;29.68;60.02
11077;BME280;5591;42.626;23.380;2023-07-24T08:46:57;94360.44;;;29.77;58.68
11077;BME280;5591;42.626;23.380;2023-07-24T08:49:24;94355.28;;;30.03;56.11
11077;BME280;5591;42.626;23.380;2023-07-24T08:51:53;94357.19;;;30.16;56.88
11077;BME280;5591;42.626;23.380;2023-07-24T08:54:22;94359.75;;;30.34;56.05
11077;BME280;5591;42.626;23.380;2023-07-24T08:56:50;94355.41;;;30.55;54.91
11077;BME280;5591;42.626;23.380;2023-07-24T08:59:17;94355.53;;;30.94;53.50
11077;BME280;5591;42.626;23.380;2023-07-24T09:01:44;94355.13;;;30.79;55.67
11077;BME280;5591;42.626;23.380;2023-07-24T09:04:11;94348.97;;;30.43;54.07
11077;BME280;5591;42.626;23.380;2023-07-24T09:06:38;94366.66;;;30.62;53.18
11077;BME280;5591;42.626;23.380;2023-07-24T09:09:12;94355.81;;;30.62;51.83
11077;BME280;5591;42.626;23.380;2023-07-24T09:11:48;94358.22;;;30.86;51.04
11077;BME280;5591;42.626;23.380;2023-07-24T09:14:22;94356.38;;;31.03;50.09
11077;BME280;5591;42.626;23.380;2023-07-24T09:16:49;94321.75;;;31.00;48.73
11077;BME280;5591;42.626;23.380;2023-07-24T09:19:19;94337.38;;;31.25;48.33
11077;BME280;5591;42.626;23.380;2023-07-24T09:21:46;94348.78;;;31.36;49.37
11077;BME280;5591;42.626;23.380;2023-07-24T09:24:14;94340.13;;;31.81;48.06
11077;BME280;5591;42.626;23.380;2023-07-24T09:26:52;94339.69;;;31.96;47.78
11077;BME280;5591;42.626;23.380;2023-07-24T09:29:19;94344.13;;;30.18;51.82
11077;BME280;5591;42.626;23.380;2023-07-24T09:31:46;94332.66;;;30.56;51.80
11077;BME280;5591;42.626;23.380;2023-07-24T09:34:15;94333.13;;;31.11;50.50
11077;BME280;5591;42.626;23.380;2023-07-24T09:36:42;94247.03;;;31.25;48.83
11077;BME280;5591;42.626;23.380;2023-07-24T09:39:10;94258.44;;;31.52;48.80
11077;BME280;5591;42.626;23.380;2023-07-24T09:41:37;94326.72;;;31.93;48.11
11077;BME280;5591;42.626;23.380;2023-07-24T09:44:06;94309.97;;;32.08;48.43
11077;BME280;5591;42.626;23.380;2023-07-24T09:46:33;94301.78;;;31.91;48.19
11077;BME280;5591;42.626;23.380;2023-07-24T09:49:00;94284.47;;;31.53;49.59
11077;BME280;5591;42.626;23.380;2023-07-24T09:51:29;94285.22;;;30.98;51.60
11077;BME280;5591;42.626;23.380;2023-07-24T09:54:00;94296.28;;;30.79;52.72
11077;BME280;5591;42.626;23.380;2023-07-24T09:56:32;94298.06;;;30.84;52.09
11077;BME280;5591;42.626;23.380;2023-07-24T09:59:00;94287.47;;;31.43;49.16
11077;BME280;5591;42.626;23.380;2023-07-24T10:01:31;94285.72;;;31.47;47.22
11077;BME280;5591;42.626;23.380;2023-07-24T10:03:59;94269.69;;;31.67;46.24
11077;BME280;5591;42.626;23.380;2023-07-24T10:06:26;94281.50;;;31.80;46.65
11077;BME280;5591;42.626;23.380;2023-07-24T10:08:54;94282.19;;;31.38;46.19
11077;BME280;5591;42.626;23.380;2023-07-24T10:11:21;94280.41;;;31.25;45.33
11077;BME280;5591;42.626;23.380;2023-07-24T10:13:50;94280.69;;;31.71;45.32
11077;BME280;5591;42.626;23.380;2023-07-24T10:16:17;94279.75;;;31.84;45.52
11077;BME280;5591;42.626;23.380;2023-07-24T10:18:46;94272.06;;;32.54;43.58
11077;BME280;5591;42.626;23.380;2023-07-24T10:21:14;94278.09;;;31.66;45.29
11077;BME280;5591;42.626;23.380;2023-07-24T10:23:42;94272.91;;;32.37;44.86
11077;BME280;5591;42.626;23.380;2023-07-24T10:26:09;94259.69;;;32.90;43.80
11077;BME280;5591;42.626;23.380;2023-07-24T10:28:37;94252.63;;;33.35;42.61
11077;BME280;5591;42.626;23.380;2023-07-24T10:31:06;94257.53;;;33.71;41.95
11077;BME280;5591;42.626;23.380;2023-07-24T10:33:35;94246.03;;;33.65;41.48
11077;BME280;5591;42.626;23.380;2023-07-24T10:36:06;94246.47;;;33.47;41.86
11077;BME280;5591;42.626;23.380;2023-07-24T10:38:36;94247.38;;;33.30;41.84
11077;BME280;5591;42.626;23.380;2023-07-24T10:41:04;94247.47;;;33.05;41.79
11077;BME280;5591;42.626;23.380;2023-07-24T10:43:41;94242.78;;;32.76;43.29
11077;BME280;5591;42.626;23.380;2023-07-24T10:46:07;94246.19;;;33.40;42.63
11077;BME280;5591;42.626;23.380;2023-07-24T10:48:34;94238.38;;;33.88;41.27
11077;BME280;5591;42.626;23.380;2023-07-24T10:51:07;94245.53;;;33.72;41.08
11077;BME280;5591;42.626;23.380;2023-07-24T10:53:35;94238.84;;;34.31;39.82
11077;BME280;5591;42.626;23.380;2023-07-24T10:56:03;94232.00;;;34.25;39.77
11077;BME280;5591;42.626;23.380;2023-07-24T10:58:30;94230.97;;;34.94;39.20
11077;BME280;5591;42.626;23.380;2023-07-24T11:00:58;94226.16;;;34.79;38.30
11077;BME280;5591;42.626;23.380;2023-07-24T11:03:25;94220.88;;;34.09;39.37
11077;BME280;5591;42.626;23.380;2023-07-24T11:05:52;94222.88;;;34.00;39.98
11077;BME280;5591;42.626;23.380;2023-07-24T11:08:20;94218.97;;;34.42;39.10
11077;BME280;5591;42.626;23.380;2023-07-24T11:10:48;94218.25;;;34.33;38.95
11077;BME280;5591;42.626;23.380;2023-07-24T11:13:15;94212.13;;;34.68;39.01
11077;BME280;5591;42.626;23.380;2023-07-24T11:15:43;94212.34;;;34.31;39.61
11077;BME280;5591;42.626;23.380;2023-07-24T11:18:10;94203.25;;;34.07;37.49
11077;BME280;5591;42.626;23.380;2023-07-24T11:20:42;94208.44;;;34.20;37.33
11077;BME280;5591;42.626;23.380;2023-07-24T11:23:10;94213.38;;;34.27;37.83
11077;BME280;5591;42.626;23.380;2023-07-24T11:25:38;94192.56;;;34.02;39.26
11077;BME280;5591;42.626;23.380;2023-07-24T11:28:06;94193.69;;;34.53;37.68
11077;BME280;5591;42.626;23.380;2023-07-24T11:30:33;94204.59;;;34.98;37.27
11077;BME280;5591;42.626;23.380;2023-07-24T11:33:02;94125.22;;;34.91;35.48
11077;BME280;5591;42.626;23.380;2023-07-24T11:35:29;94190.31;;;36.28;34.76
11077;BME280;5591;42.626;23.380;2023-07-24T11:37:56;94178.38;;;36.08;34.87
11077;BME280;5591;42.626;23.380;2023-07-24T11:40:31;94186.28;;;36.53;35.01
11077;BME280;5591;42.626;23.380;2023-07-24T11:43:00;94176.91;;;36.38;35.43
11077;BME280;5591;42.626;23.380;2023-07-24T11:45:27;94178.59;;;36.43;33.89
11077;BME280;5591;42.626;23.380;2023-07-24T11:47:54;94181.84;;;37.53;32.54
11077;BME280;5591;42.626;23.380;2023-07-24T11:50:22;94168.09;;;38.41;30.39
11077;BME280;5591;42.626;23.380;2023-07-24T11:52:51;94164.91;;;40.33;28.72
11077;BME280;5591;42.626;23.380;2023-07-24T11:55:19;94160.91;;;40.27;28.94
11077;BME280;5591;42.626;23.380;2023-07-24T11:57:56;94181.16;;;38.47;31.13
11077;BME280;5591;42.626;23.380;2023-07-24T12:00:24;94172.28;;;39.66;30.31
11077;BME280;5591;42.626;23.380;2023-07-24T12:02:52;94124.56;;;39.29;28.74
11077;BME280;5591;42.626;23.380;2023-07-24T12:05:18;94180.97;;;40.57;28.79
11077;BME280;5591;42.626;23.380;2023-07-24T12:07:45;94156.88;;;39.13;29.53
11077;BME280;5591;42.626;23.380;2023-07-24T12:10:13;94135.47;;;38.17;30.76
11077;BME280;5591;42.626;23.380;2023-07-24T12:12:44;94176.19;;;37.46;32.72
11077;BME280;5591;42.626;23.380;2023-07-24T12:15:11;94154.41;;;40.42;29.10
11077;BME280;5591;42.626;23.380;2023-07-24T12:17:40;94164.94;;;38.80;29.51
11077;BME280;5591;42.626;23.380;2023-07-24T12:20:08;94153.22;;;38.83;29.44
11077;BME280;5591;42.626;23.380;2023-07-24T12:22:36;94165.38;;;39.53;28.16
11077;BME280;5591;42.626;23.380;2023-07-24T12:25:04;94164.16;;;39.02;28.61
11077;BME280;5591;42.626;23.380;2023-07-24T12:27:32;94125.50;;;39.40;28.60
11077;BME280;5591;42.626;23.380;2023-07-24T12:29:59;94164.84;;;40.29;28.40
11077;BME280;5591;42.626;23.380;2023-07-24T12:32:26;94149.91;;;40.96;27.52
11077;BME280;5591;42.626;23.380;2023-07-24T12:34:54;94148.47;;;39.77;29.93
11077;BME280;5591;42.626;23.380;2023-07-24T12:37:21;94142.88;;;40.33;29.73
11077;BME280;5591;42.626;23.380;2023-07-24T12:39:48;94140.97;;;40.04;29.99
11077;BME280;5591;42.626;23.380;2023-07-24T12:42:16;94145.94;;;39.95;28.59
11077;BME280;5591;42.626;23.380;2023-07-24T12:44:43;94123.06;;;41.36;26.94
11077;BME280;5591;42.626;23.380;2023-07-24T12:47:11;94140.28;;;42.55;26.50
11077;BME280;5591;42.626;23.380;2023-07-24T12:49:38;94138.44;;;41.98;25.83
11077;BME280;5591;42.626;23.380;2023-07-24T12:52:06;94131.88;;;42.31;25.37
11077;BME280;5591;42.626;23.380;2023-07-24T12:54:34;94103.25;;;41.78;25.61
11077;BME280;5591;42.626;23.380;2023-07-24T12:57:01;94141.19;;;39.36;28.36